Time;durP1;ratioP1;P1;durP2;ratioP2;P2;SDS_P1;SDS_P2;PMS_P1;PMS_P2;Temp;Humidity;BMP_temperature;BMP_pressure;BME280_temperature;BME280_humidity;BME280_pressure;Samples;Min_cycle;Max_cycle;Signal;HPM_P1;HPM_P2
2022/10/02 00:00:12;;;;;;;18.27;3.75;;;13.20;99.90;;;;;;5112442;28;20209;-56
2022/10/02 00:02:49;;;;;;;14.48;3.88;;;13.20;99.90;;;;;;5111771;28;20172;-56
2022/10/02 00:05:27;;;;;;;19.50;3.53;;;13.20;99.90;;;;;;5112092;28;20168;-57
2022/10/02 00:08:09;;;;;;;12.98;3.50;;;13.20;99.90;;;;;;5112128;28;20706;-57
2022/10/02 00:10:47;;;;;;;16.67;4.10;;;13.20;99.90;;;;;;5112446;28;20156;-57
2022/10/02 00:13:33;;;;;;;18.73;3.30;;;13.30;99.90;;;;;;5112022;28;20165;-57
2022/10/02 00:16:02;;;;;;;28.27;4.68;;;13.40;99.90;;;;;;5114575;28;20172;-57
2022/10/02 00:18:32;;;;;;;12.07;3.33;;;13.30;99.90;;;;;;5114897;28;20164;-57
2022/10/02 00:21:12;;;;;;;20.13;3.95;;;13.40;99.90;;;;;;5116146;28;20208;-57
2022/10/02 00:23:47;;;;;;;18.92;3.83;;;13.40;99.90;;;;;;5114613;28;20168;-56
2022/10/02 00:26:20;;;;;;;18.80;3.65;;;13.40;99.90;;;;;;5115961;27;20179;-56
2022/10/02 00:28:57;;;;;;;16.35;3.58;;;13.40;99.90;;;;;;5115843;28;20291;-57
2022/10/02 00:31:58;;;;;;;23.50;4.20;;;13.40;99.90;;;;;;5115857;28;20160;-55
2022/10/02 00:34:55;;;;;;;18.08;3.80;;;13.50;99.90;;;;;;5086900;28;20216;-55
2022/10/02 00:37:48;;;;;;;17.27;3.45;;;13.50;99.90;;;;;;5061382;28;20641;-56
2022/10/02 00:40:55;;;;;;;16.90;3.80;;;13.50;99.90;;;;;;5115666;28;20212;-55
2022/10/02 00:43:39;;;;;;;19.38;3.35;;;13.60;99.90;;;;;;5094589;28;20196;-55
2022/10/02 00:46:21;;;;;;;11.75;3.38;;;13.60;99.90;;;;;;5115590;28;20200;-55
2022/10/02 00:48:59;;;;;;;19.33;3.38;;;13.60;99.90;;;;;;5115484;28;20164;-55
2022/10/02 00:51:36;;;;;;;16.42;4.40;;;13.60;99.90;;;;;;5115441;28;20161;-55
2022/10/02 00:54:30;;;;;;;20.55;4.60;;;13.70;99.90;;;;;;5115753;28;20169;-55
2022/10/02 00:57:16;;;;;;;25.67;4.28;;;13.70;99.90;;;;;;5115618;28;20180;-55
2022/10/02 00:59:50;;;;;;;17.20;3.83;;;13.70;99.90;;;;;;5115239;28;20193;-55
2022/10/02 01:02:35;;;;;;;18.38;3.80;;;13.70;99.90;;;;;;5115542;28;20283;-55
2022/10/02 01:05:05;;;;;;;15.98;3.15;;;13.70;99.90;;;;;;5115616;28;20164;-55
2022/10/02 01:07:31;;;;;;;14.00;4.00;;;13.70;99.90;;;;;;5115480;28;20172;-56
2022/10/02 01:09:57;;;;;;;14.30;4.40;;;13.70;99.90;;;;;;5115125;28;20169;-55
2022/10/02 01:12:23;;;;;;;20.80;4.18;;;13.70;99.90;;;;;;5115087;28;20626;-56
2022/10/02 01:14:48;;;;;;;17.38;4.10;;;13.70;99.90;;;;;;5114948;28;20173;-55
2022/10/02 01:17:33;;;;;;;20.52;4.60;;;13.70;99.90;;;;;;5114954;28;20173;-56
2022/10/02 01:20:04;;;;;;;24.65;4.38;;;13.70;99.90;;;;;;5114780;28;20188;-56
2022/10/02 01:22:51;;;;;;;18.73;3.85;;;13.70;99.90;;;;;;5115203;28;20176;-55
2022/10/02 01:25:17;;;;;;;17.27;3.53;;;13.70;99.90;;;;;;5114819;28;20161;-56
2022/10/02 01:27:42;;;;;;;21.20;4.40;;;13.70;99.90;;;;;;5114100;28;20171;-56
2022/10/02 01:30:11;;;;;;;19.52;3.67;;;13.70;99.90;;;;;;5114764;28;20161;-56
2022/10/02 01:32:42;;;;;;;18.08;4.03;;;13.70;99.90;;;;;;5114694;28;20171;-57
2022/10/02 01:35:08;;;;;;;18.27;4.70;;;13.80;99.90;;;;;;5114654;28;20165;-56
2022/10/02 01:37:37;;;;;;;18.15;4.43;;;13.80;99.90;;;;;;5115079;28;20156;-57
2022/10/02 01:40:08;;;;;;;23.60;3.78;;;13.80;99.90;;;;;;5114865;28;20192;-56
2022/10/02 01:42:34;;;;;;;19.33;4.35;;;13.80;99.90;;;;;;5115113;28;20525;-57
2022/10/02 01:45:01;;;;;;;18.13;3.70;;;13.80;99.90;;;;;;5114854;28;20189;-57
2022/10/02 01:47:48;;;;;;;15.80;4.25;;;13.80;99.90;;;;;;5114552;28;20169;-56
2022/10/02 01:50:30;;;;;;;18.65;4.35;;;13.80;99.90;;;;;;5114451;28;20272;-56
2022/10/02 01:53:08;;;;;;;26.90;4.50;;;13.90;99.90;;;;;;5114293;28;20227;-57
2022/10/02 01:55:39;;;;;;;25.95;4.00;;;13.90;99.90;;;;;;5114766;27;20582;-56
2022/10/02 01:58:42;;;;;;;22.00;4.40;;;13.90;99.90;;;;;;5114255;28;20172;-56
2022/10/02 02:01:11;;;;;;;22.85;4.35;;;13.80;99.90;;;;;;5114109;28;20223;-56
2022/10/02 02:03:39;;;;;;;20.23;4.28;;;13.90;99.90;;;;;;5114067;28;20168;-56
2022/10/02 02:06:23;;;;;;;18.83;4.47;;;13.90;99.90;;;;;;5114017;28;20189;-56
2022/10/02 02:08:56;;;;;;;24.25;5.47;;;13.80;99.90;;;;;;5114086;28;20540;-56
2022/10/02 02:11:22;;;;;;;22.05;4.18;;;13.90;99.90;;;;;;5114009;28;20160;-56
2022/10/02 02:13:51;;;;;;;26.60;7.15;;;13.90;99.90;;;;;;5113951;28;20641;-56
2022/10/02 02:16:30;;;;;;;19.88;4.53;;;13.90;99.90;;;;;;5113867;28;20221;-56
2022/10/02 02:19:29;;;;;;;21.65;4.90;;;13.90;99.90;;;;;;5113862;28;20210;-55
2022/10/02 02:22:02;;;;;;;20.63;4.45;;;13.90;99.90;;;;;;5113775;28;20173;-55
2022/10/02 02:24:37;;;;;;;23.20;4.68;;;13.90;99.90;;;;;;5113714;28;20165;-55
2022/10/02 02:27:04;;;;;;;21.10;3.75;;;13.90;99.90;;;;;;5114028;28;20168;-55
2022/10/02 02:29:34;;;;;;;16.08;4.13;;;13.90;99.90;;;;;;5114052;28;20202;-56
2022/10/02 02:32:04;;;;;;;23.63;4.72;;;13.80;99.90;;;;;;5113893;28;20157;-57
2022/10/02 02:34:40;;;;;;;20.13;4.03;;;13.90;99.90;;;;;;5113844;28;20245;-57
2022/10/02 02:37:15;;;;;;;26.63;4.25;;;13.80;99.90;;;;;;5113404;28;20213;-56
2022/10/02 02:39:54;;;;;;;22.73;3.97;;;13.90;99.90;;;;;;5112214;28;20679;-57
2022/10/02 02:42:24;;;;;;;19.80;4.22;;;13.90;99.90;;;;;;5113339;28;20625;-56
2022/10/02 02:45:00;;;;;;;24.05;4.30;;;13.90;99.90;;;;;;5113325;28;20192;-56
2022/10/02 02:47:39;;;;;;;23.52;3.92;;;13.90;99.90;;;;;;5112058;28;20229;-56
2022/10/02 02:50:13;;;;;;;13.40;3.60;;;13.90;99.90;;;;;;5113093;28;20172;-56
2022/10/02 02:52:49;;;;;;;16.65;3.50;;;13.90;99.90;;;;;;5113175;28;20260;-56
2022/10/02 02:55:43;;;;;;;22.75;4.93;;;14.00;99.90;;;;;;5113022;27;20276;-56
2022/10/02 02:58:25;;;;;;;11.85;3.22;;;14.00;99.90;;;;;;5109887;28;20184;-57
2022/10/02 03:00:51;;;;;;;23.17;4.43;;;14.00;99.90;;;;;;5112925;28;20208;-56
2022/10/02 03:03:17;;;;;;;18.77;3.72;;;14.00;99.90;;;;;;5113249;28;20165;-57
2022/10/02 03:06:02;;;;;;;20.70;4.75;;;14.10;99.90;;;;;;5112951;28;20508;-57
2022/10/02 03:08:32;;;;;;;22.95;4.82;;;14.10;99.90;;;;;;5127437;27;20266;-57
2022/10/02 03:11:21;;;;;;;24.08;4.07;;;14.10;99.90;;;;;;5133319;27;20160;-57
2022/10/02 03:14:03;;;;;;;20.40;4.40;;;14.10;99.90;;;;;;5133576;27;20165;-57
2022/10/02 03:16:44;;;;;;;21.13;3.97;;;14.20;99.90;;;;;;5133863;27;20179;-58
2022/10/02 03:19:15;;;;;;;18.23;4.55;;;14.10;99.90;;;;;;5131941;27;20167;-57
2022/10/02 03:21:47;;;;;;;16.95;3.97;;;14.20;99.90;;;;;;5133086;27;20200;-57
2022/10/02 03:24:28;;;;;;;21.65;3.15;;;14.10;99.90;;;;;;5133203;27;20171;-57
2022/10/02 03:26:59;;;;;;;26.17;4.30;;;14.20;99.90;;;;;;5133397;27;20274;-57
2022/10/02 03:29:50;;;;;;;17.15;3.30;;;14.20;99.90;;;;;;5131751;27;20189;-57
2022/10/02 03:32:17;;;;;;;19.98;4.20;;;14.30;99.90;;;;;;5132930;27;20567;-57
2022/10/02 03:34:43;;;;;;;19.17;3.78;;;14.20;99.90;;;;;;5133007;27;20248;-58
2022/10/02 03:37:09;;;;;;;16.45;3.33;;;14.30;99.90;;;;;;5133101;27;20210;-57
2022/10/02 03:39:39;;;;;;;23.80;4.43;;;14.30;99.90;;;;;;5132961;27;20168;-57
2022/10/02 03:42:05;;;;;;;23.90;4.57;;;14.30;99.90;;;;;;5132929;27;20192;-57
2022/10/02 03:44:30;;;;;;;16.65;3.33;;;14.30;99.90;;;;;;5133255;27;20239;-57
2022/10/02 03:46:56;;;;;;;14.60;3.53;;;14.40;99.90;;;;;;5132894;27;20189;-57
2022/10/02 03:49:24;;;;;;;20.52;3.90;;;14.40;99.90;;;;;;5132876;27;20233;-57
2022/10/02 03:51:50;;;;;;;19.52;4.20;;;14.30;99.90;;;;;;5132735;27;20168;-57
2022/10/02 03:54:18;;;;;;;17.67;4.05;;;14.30;99.90;;;;;;5132674;27;20266;-58
2022/10/02 03:57:06;;;;;;;15.57;3.90;;;14.20;99.90;;;;;;5132750;27;20195;-57
2022/10/02 04:00:08;;;;;;;23.42;4.00;;;14.30;99.90;;;;;;5132996;27;20159;-57
2022/10/02 04:02:36;;;;;;;18.98;3.78;;;14.20;99.90;;;;;;5090125;28;20171;-58
2022/10/02 04:05:20;;;;;;;20.33;4.75;;;14.20;99.90;;;;;;5125286;27;20268;-57
2022/10/02 04:07:49;;;;;;;12.10;2.83;;;14.10;99.90;;;;;;5131392;27;20168;-57
2022/10/02 04:10:28;;;;;;;18.48;4.07;;;14.10;99.90;;;;;;5132738;27;20205;-57
2022/10/02 04:13:01;;;;;;;21.55;4.05;;;14.10;99.90;;;;;;5132621;27;20168;-58
2022/10/02 04:15:57;;;;;;;15.43;3.88;;;14.10;99.90;;;;;;5132538;27;20651;-58
2022/10/02 04:18:37;;;;;;;13.20;4.20;;;14.00;99.90;;;;;;5125783;28;20172;-58
2022/10/02 04:21:11;;;;;;;15.23;3.60;;;14.00;99.90;;;;;;5133031;27;20212;-57
2022/10/02 04:23:51;;;;;;;14.15;3.15;;;14.00;99.90;;;;;;5132529;27;20163;-56
2022/10/02 04:26:26;;;;;;;12.23;2.97;;;14.00;99.90;;;;;;5132489;27;20164;-58
2022/10/02 04:29:00;;;;;;;10.95;3.05;;;14.00;99.90;;;;;;5132493;27;20609;-58
2022/10/02 04:31:27;;;;;;;13.40;2.90;;;14.00;99.90;;;;;;5132498;27;20577;-57
2022/10/02 04:34:01;;;;;;;12.23;2.88;;;14.00;99.90;;;;;;5132367;27;20168;-57
2022/10/02 04:36:38;;;;;;;14.25;3.40;;;14.00;99.90;;;;;;5132391;27;20208;-58
2022/10/02 04:39:25;;;;;;;13.73;2.97;;;14.00;99.90;;;;;;5132518;27;20163;-57
2022/10/02 04:42:07;;;;;;;11.77;3.15;;;14.00;99.90;;;;;;5132351;27;20207;-57
2022/10/02 04:44:45;;;;;;;10.70;4.05;;;14.00;99.90;;;;;;5132616;27;20156;-57
2022/10/02 04:47:20;;;;;;;10.40;3.10;;;14.00;99.90;;;;;;5132277;27;20191;-57
2022/10/02 04:50:04;;;;;;;15.23;4.15;;;14.00;99.90;;;;;;5132550;27;20590;-57
2022/10/02 04:52:53;;;;;;;9.20;2.78;;;14.00;99.90;;;;;;5132684;27;20237;-58
2022/10/02 04:55:26;;;;;;;7.78;2.83;;;14.00;99.90;;;;;;5131991;27;20704;-58
2022/10/02 04:58:15;;;;;;;12.05;3.25;;;14.00;99.90;;;;;;5132151;27;20168;-57
2022/10/02 05:01:19;;;;;;;13.40;3.65;;;14.00;99.90;;;;;;5131991;27;20282;-57
2022/10/02 05:03:53;;;;;;;14.65;3.15;;;14.00;99.90;;;;;;5134309;27;20191;-57
2022/10/02 05:06:45;;;;;;;14.98;3.20;;;14.00;99.90;;;;;;5135821;27;20159;-56
2022/10/02 05:09:20;;;;;;;11.77;3.10;;;14.00;99.90;;;;;;5133539;27;20210;-56
2022/10/02 05:11:49;;;;;;;12.82;3.35;;;14.00;99.90;;;;;;5135723;27;20163;-56
2022/10/02 05:14:41;;;;;;;16.50;3.70;;;14.00;99.90;;;;;;5134383;27;20167;-56
2022/10/02 05:17:33;;;;;;;14.07;3.38;;;14.00;99.90;;;;;;5135671;27;20220;-56
2022/10/02 05:20:27;;;;;;;14.57;3.85;;;13.90;99.90;;;;;;5119560;27;20271;-56
2022/10/02 05:23:14;;;;;;;9.30;2.28;;;13.90;99.90;;;;;;5135341;27;20243;-56
2022/10/02 05:26:18;;;;;;;12.90;3.22;;;13.90;99.90;;;;;;5135332;27;20171;-56
2022/10/02 05:29:09;;;;;;;8.95;3.33;;;13.90;99.90;;;;;;5135337;27;20167;-57
2022/10/02 05:31:49;;;;;;;12.00;3.20;;;13.90;99.90;;;;;;5135348;27;20164;-56
2022/10/02 05:34:44;;;;;;;10.32;3.25;;;13.90;99.90;;;;;;5135351;27;20620;-56
2022/10/02 05:37:21;;;;;;;7.85;2.83;;;13.90;99.90;;;;;;5135425;27;20213;-57
2022/10/02 05:40:41;;;;;;;15.00;3.05;;;13.90;99.90;;;;;;5135216;27;20664;-57
2022/10/02 05:43:20;;;;;;;15.98;2.95;;;13.90;99.90;;;;;;5111637;27;20221;-57
2022/10/02 05:45:51;;;;;;;8.50;3.10;;;13.90;99.90;;;;;;5135625;27;20190;-58
2022/10/02 05:48:47;;;;;;;9.35;2.85;;;13.90;99.90;;;;;;5135020;27;20616;-57
2022/10/02 05:52:10;;;;;;;9.45;2.55;;;13.90;99.90;;;;;;5118764;27;20535;-58
2022/10/02 05:54:57;;;;;;;10.18;3.13;;;13.90;99.90;;;;;;5085889;27;20223;-56
2022/10/02 05:57:37;;;;;;;9.95;2.65;;;13.80;99.90;;;;;;5135095;27;20674;-56
2022/10/02 06:00:24;;;;;;;11.43;2.80;;;13.90;99.90;;;;;;5135116;27;20188;-56
2022/10/02 06:03:15;;;;;;;10.57;3.30;;;13.90;99.90;;;;;;5134713;27;20172;-57
2022/10/02 06:05:54;;;;;;;8.88;2.55;;;13.80;99.90;;;;;;5134624;27;20247;-56
2022/10/02 06:08:34;;;;;;;9.38;2.47;;;13.80;99.90;;;;;;5134887;27;20209;-56
2022/10/02 06:11:27;;;;;;;11.13;2.50;;;13.80;99.90;;;;;;5135216;27;20178;-56
2022/10/02 06:14:09;;;;;;;13.35;2.75;;;13.90;99.90;;;;;;5112620;27;20187;-57
2022/10/02 06:16:54;;;;;;;7.95;2.15;;;13.90;99.90;;;;;;5134733;27;20198;-56
2022/10/02 06:19:36;;;;;;;7.25;2.10;;;13.90;99.90;;;;;;5134738;27;20168;-56
2022/10/02 06:22:25;;;;;;;7.07;2.33;;;13.90;99.90;;;;;;5133855;27;20587;-57
2022/10/02 06:25:07;;;;;;;6.97;2.25;;;13.90;99.90;;;;;;5134496;27;20542;-57
2022/10/02 06:28:00;;;;;;;6.63;2.42;;;13.90;99.90;;;;;;5134281;27;20159;-56
2022/10/02 06:30:27;;;;;;;7.15;2.05;;;14.00;99.90;;;;;;5134027;27;20572;-57
2022/10/02 06:32:58;;;;;;;7.55;1.92;;;14.00;99.90;;;;;;5134195;27;20172;-57
2022/10/02 06:35:50;;;;;;;8.27;2.20;;;14.10;99.90;;;;;;5134063;27;20164;-56
2022/10/02 06:38:34;;;;;;;10.85;2.97;;;14.00;99.90;;;;;;5133649;27;20632;-56
2022/10/02 06:41:34;;;;;;;5.90;2.22;;;14.10;99.90;;;;;;5134359;27;20702;-56
2022/10/02 06:44:18;;;;;;;7.15;2.50;;;14.10;99.90;;;;;;5132970;27;20172;-56
2022/10/02 06:47:00;;;;;;;7.22;2.22;;;14.10;99.90;;;;;;5133855;27;20247;-56
2022/10/02 06:49:45;;;;;;;8.80;2.63;;;14.10;99.90;;;;;;5133796;27;20160;-56
2022/10/02 06:52:44;;;;;;;12.77;2.58;;;14.20;99.90;;;;;;5133947;27;20172;-56
2022/10/02 06:55:28;;;;;;;10.65;2.40;;;14.20;99.90;;;;;;5132988;27;20208;-56
2022/10/02 06:58:07;;;;;;;9.27;2.30;;;14.20;99.90;;;;;;5133623;27;20162;-56
2022/10/02 07:00:44;;;;;;;8.00;2.45;;;14.20;99.90;;;;;;5133492;27;20222;-56
2022/10/02 07:03:48;;;;;;;5.13;2.30;;;14.30;99.90;;;;;;5131957;27;20173;-57
2022/10/02 07:06:34;;;;;;;7.97;2.55;;;14.30;99.90;;;;;;5133824;27;20533;-57
2022/10/02 07:09:25;;;;;;;6.25;1.90;;;14.30;99.90;;;;;;5133755;27;20168;-57
2022/10/02 07:12:06;;;;;;;6.03;1.55;;;14.20;99.90;;;;;;5133451;27;20694;-57
2022/10/02 07:15:10;;;;;;;5.13;2.13;;;14.20;99.90;;;;;;5133968;27;20212;-57
2022/10/02 07:17:56;;;;;;;5.90;1.75;;;14.20;99.90;;;;;;5133223;27;20160;-58
2022/10/02 07:20:48;;;;;;;8.90;2.15;;;14.30;99.90;;;;;;5132854;27;20199;-57
2022/10/02 07:23:26;;;;;;;6.07;1.30;;;14.30;99.90;;;;;;5132776;27;20183;-56
2022/10/02 07:26:30;;;;;;;4.65;1.35;;;14.30;99.90;;;;;;5132420;27;20160;-57
2022/10/02 07:29:10;;;;;;;6.05;1.38;;;14.20;99.90;;;;;;5110796;27;20179;-56
2022/10/02 07:31:48;;;;;;;4.95;1.88;;;14.20;99.90;;;;;;5132902;27;20186;-57
2022/10/02 07:34:32;;;;;;;8.82;1.80;;;14.20;99.90;;;;;;5132901;27;20164;-57
2022/10/02 07:37:01;;;;;;;5.70;1.30;;;14.20;99.90;;;;;;5133142;27;20239;-56
2022/10/02 07:40:00;;;;;;;2.40;1.20;;;14.20;99.90;;;;;;5131500;27;20175;-56
2022/10/02 07:42:43;;;;;;;5.88;1.52;;;14.10;99.90;;;;;;5132746;27;20172;-57
2022/10/02 07:45:36;;;;;;;4.95;1.52;;;14.10;99.90;;;;;;5133366;27;20220;-56
2022/10/02 07:48:21;;;;;;;7.07;1.55;;;14.10;99.90;;;;;;5133504;27;20256;-57
2022/10/02 07:50:54;;;;;;;7.43;2.03;;;14.10;99.90;;;;;;5132801;27;20628;-56
2022/10/02 07:53:39;;;;;;;8.57;1.65;;;14.10;99.90;;;;;;5132650;27;20213;-56
2022/10/02 07:56:08;;;;;;;9.18;2.08;;;14.10;99.90;;;;;;5132357;27;20211;-56
2022/10/02 07:58:48;;;;;;;4.35;1.55;;;14.20;99.90;;;;;;5132787;27;20176;-56
2022/10/02 08:01:19;;;;;;;5.72;2.00;;;14.10;99.90;;;;;;5131521;28;20207;-56
2022/10/02 08:04:07;;;;;;;5.22;1.67;;;14.10;99.90;;;;;;5132746;27;20164;-56
2022/10/02 08:06:35;;;;;;;6.03;1.77;;;14.10;99.90;;;;;;5132711;27;20168;-56
2022/10/02 08:09:11;;;;;;;8.90;1.95;;;14.10;99.90;;;;;;5132949;27;20709;-56
2022/10/02 08:11:43;;;;;;;6.25;1.67;;;14.20;99.90;;;;;;5131238;27;20171;-56
2022/10/02 08:14:40;;;;;;;3.25;1.58;;;14.20;99.90;;;;;;5131266;28;20167;-56
2022/10/02 08:17:43;;;;;;;9.07;2.97;;;14.20;99.90;;;;;;5132079;27;20163;-55
2022/10/02 08:20:30;;;;;;;9.38;2.30;;;14.30;99.90;;;;;;5132240;27;20274;-56
2022/10/02 08:23:25;;;;;;;3.17;1.30;;;14.30;99.90;;;;;;5132455;27;20163;-56
2022/10/02 08:26:03;;;;;;;6.75;1.80;;;14.30;99.90;;;;;;5130995;27;20579;-56
2022/10/02 08:28:49;;;;;;;5.78;1.90;;;14.40;99.90;;;;;;5132572;27;20225;-56
2022/10/02 08:31:15;;;;;;;6.93;1.77;;;14.40;99.90;;;;;;5132088;27;20625;-55
2022/10/02 08:33:41;;;;;;;11.07;2.08;;;14.40;99.90;;;;;;5131197;27;20243;-51
2022/10/02 08:36:40;;;;;;;5.28;1.35;;;14.40;99.90;;;;;;5133195;27;20168;-58
2022/10/02 08:39:21;;;;;;;4.72;1.60;;;14.50;99.90;;;;;;5136539;27;20199;-56
2022/10/02 08:42:03;;;;;;;6.47;1.85;;;14.50;99.90;;;;;;5136298;27;20203;-54
2022/10/02 08:44:50;;;;;;;8.13;1.58;;;14.60;99.90;;;;;;5136825;27;20187;-56
2022/10/02 08:48:01;;;;;;;5.75;1.92;;;14.70;99.90;;;;;;5136196;27;20242;-54
2022/10/02 08:50:41;;;;;;;4.65;1.60;;;15.80;99.90;;;;;;5126677;27;20548;-54
2022/10/02 08:53:55;;;;;;;6.32;1.52;;;14.90;99.90;;;;;;5136201;27;20172;-53
2022/10/02 08:56:53;;;;;;;6.43;1.80;;;14.90;99.90;;;;;;5135836;27;20216;-54
2022/10/02 09:00:00;;;;;;;4.57;1.58;;;15.00;99.90;;;;;;5112702;27;20176;-55
2022/10/02 09:02:43;;;;;;;7.90;2.20;;;15.10;99.90;;;;;;5135881;27;20183;-56
2022/10/02 09:05:31;;;;;;;5.63;1.65;;;15.30;99.90;;;;;;5135844;27;20160;-54
2022/10/02 09:08:35;;;;;;;7.95;1.60;;;15.30;99.90;;;;;;5135773;27;20277;-54
2022/10/02 09:11:38;;;;;;;7.20;2.22;;;15.20;99.90;;;;;;5136294;27;20160;-55
2022/10/02 09:14:25;;;;;;;6.38;1.77;;;15.20;99.90;;;;;;5135639;27;20178;-56
2022/10/02 09:17:09;;;;;;;4.88;1.73;;;15.20;99.90;;;;;;5135657;27;20168;-56
2022/10/02 09:20:11;;;;;;;7.15;1.92;;;15.20;99.90;;;;;;5135541;27;20697;-56
2022/10/02 09:23:17;;;;;;;5.97;1.60;;;15.00;99.90;;;;;;5135525;27;20168;-55
2022/10/02 09:25:52;;;;;;;3.67;1.50;;;15.10;99.90;;;;;;5135444;27;20170;-56
2022/10/02 09:28:49;;;;;;;4.57;1.80;;;15.20;99.90;;;;;;5135416;27;20156;-55
2022/10/02 09:31:52;;;;;;;5.90;1.20;;;15.20;99.90;;;;;;5135324;27;20212;-55
2022/10/02 09:34:32;;;;;;;3.40;1.60;;;15.30;99.90;;;;;;5129394;27;20172;-56
2022/10/02 09:37:23;;;;;;;6.68;1.75;;;15.20;99.90;;;;;;5135627;27;20191;-56
2022/10/02 09:39:55;;;;;;;4.65;1.67;;;15.20;99.90;;;;;;5135061;27;20626;-55
2022/10/02 09:42:26;;;;;;;5.07;1.50;;;15.40;99.90;;;;;;5135124;27;20180;-55
2022/10/02 09:45:32;;;;;;;6.88;2.10;;;15.50;99.90;;;;;;5133825;27;20160;-56
2022/10/02 09:48:15;;;;;;;4.43;2.25;;;15.50;99.90;;;;;;5134943;27;20176;-54
2022/10/02 09:51:16;;;;;;;4.90;1.65;;;15.50;99.90;;;;;;5134966;27;20164;-55
2022/10/02 09:54:09;;;;;;;8.88;2.25;;;15.60;99.90;;;;;;5134841;27;20570;-54
2022/10/02 09:57:03;;;;;;;6.63;1.75;;;15.70;99.90;;;;;;5134597;27;20526;-55
2022/10/02 09:59:44;;;;;;;2.83;1.65;;;15.90;99.90;;;;;;5134271;27;20171;-54
2022/10/02 10:02:47;;;;;;;8.95;2.10;;;15.90;99.90;;;;;;5133388;27;20640;-54
2022/10/02 10:06:02;;;;;;;5.72;1.80;;;16.00;99.90;;;;;;5132789;27;20249;-55
2022/10/02 10:09:05;;;;;;;6.50;2.00;;;15.80;99.90;;;;;;5134612;27;20594;-55
2022/10/02 10:11:34;;;;;;;4.45;1.88;;;15.90;99.90;;;;;;5134523;27;20179;-54
2022/10/02 10:14:20;;;;;;;6.32;2.42;;;15.80;99.90;;;;;;5134631;27;20365;-53
2022/10/02 10:17:07;;;;;;;3.53;1.73;;;15.90;99.90;;;;;;5134709;27;20190;-54
2022/10/02 10:19:58;;;;;;;6.28;1.63;;;16.00;99.90;;;;;;5132423;27;20175;-54
2022/10/02 10:22:42;;;;;;;6.72;1.90;;;15.90;99.90;;;;;;5134504;27;20191;-54
2022/10/02 10:25:49;;;;;;;3.47;1.40;;;16.00;99.90;;;;;;5134026;27;20705;-54
2022/10/02 10:28:20;;;;;;;6.18;1.90;;;16.00;99.90;;;;;;5134097;27;20163;-55
2022/10/02 10:31:10;;;;;;;5.88;2.05;;;16.00;99.90;;;;;;5133858;27;20191;-53
2022/10/02 10:34:02;;;;;;;5.38;1.88;;;16.30;99.90;;;;;;5133815;27;20641;-54
2022/10/02 10:40:08;;;;;;;6.18;2.33;;;16.60;99.90;;;;;;5122939;27;20179;-54
2022/10/02 10:42:48;;;;;;;5.25;1.70;;;16.80;99.90;;;;;;5123530;27;20183;-53
2022/10/02 10:45:25;;;;;;;6.43;2.22;;;16.80;99.90;;;;;;5122579;27;20726;-55
2022/10/02 10:48:03;;;;;;;3.30;2.00;;;16.90;99.90;;;;;;5122563;27;20169;-53
2022/10/02 10:50:37;;;;;;;8.70;2.20;;;17.10;99.90;;;;;;5133542;27;20168;-54
2022/10/02 10:53:39;;;;;;;4.85;1.85;;;17.10;99.90;;;;;;5133299;27;20620;-53
2022/10/02 10:56:24;;;;;;;5.05;2.50;;;16.90;99.90;;;;;;5133364;27;20584;-55
2022/10/02 10:59:12;;;;;;;4.72;2.22;;;16.80;99.90;;;;;;5133175;27;20644;-55
2022/10/02 11:01:49;;;;;;;5.75;2.28;;;16.80;99.90;;;;;;5132164;27;20215;-55
2022/10/02 11:04:40;;;;;;;5.07;2.33;;;17.00;99.90;;;;;;5132912;27;20183;-57
2022/10/02 11:07:55;;;;;;;7.03;1.95;;;17.00;99.90;;;;;;5133348;27;20156;-56
2022/10/02 11:10:49;;;;;;;9.07;2.30;;;16.90;99.90;;;;;;5133038;27;20259;-57
2022/10/02 11:14:09;;;;;;;5.18;2.45;;;17.00;99.90;;;;;;5128395;27;20601;-57
2022/10/02 11:16:58;;;;;;;5.43;2.05;;;17.00;99.90;;;;;;5089777;28;20200;-56
2022/10/02 11:19:47;;;;;;;7.05;2.10;;;17.10;99.90;;;;;;5133064;27;20168;-57
2022/10/02 11:22:34;;;;;;;6.07;2.03;;;17.00;99.90;;;;;;5111071;27;20187;-54
2022/10/02 11:25:26;;;;;;;8.15;2.20;;;17.00;99.90;;;;;;5133277;27;20191;-56
2022/10/02 11:28:10;;;;;;;7.43;2.28;;;17.00;99.90;;;;;;5132637;27;20625;-57
2022/10/02 11:30:54;;;;;;;11.27;2.63;;;17.00;99.90;;;;;;5132435;27;20243;-57
2022/10/02 11:33:47;;;;;;;5.32;1.70;;;17.20;99.90;;;;;;5132746;27;20171;-57
2022/10/02 11:36:43;;;;;;;9.95;2.60;;;17.30;99.90;;;;;;5132706;27;20171;-56
2022/10/02 11:39:46;;;;;;;8.23;2.50;;;17.30;99.90;;;;;;5120887;27;20171;-57
2022/10/02 11:42:25;;;;;;;5.50;1.95;;;17.30;99.90;;;;;;5122677;27;20679;-54
2022/10/02 11:45:05;;;;;;;7.53;2.60;;;17.30;99.90;;;;;;5122297;27;20208;-56
2022/10/02 11:47:49;;;;;;;7.78;2.42;;;17.50;99.90;;;;;;5123063;27;20168;-56
2022/10/02 11:50:18;;;;;;;6.13;2.10;;;17.50;99.90;;;;;;5122353;27;20209;-56
2022/10/02 11:52:52;;;;;;;6.70;2.60;;;17.60;99.90;;;;;;5121780;28;20183;-57
2022/10/02 11:55:36;;;;;;;10.98;2.55;;;17.60;99.90;;;;;;5126429;27;20211;-56
2022/10/02 11:58:47;;;;;;;5.90;2.50;;;17.50;99.90;;;;;;5132262;27;20155;-56
2022/10/02 12:01:25;;;;;;;6.97;2.50;;;17.70;99.90;;;;;;5131942;27;20199;-56
2022/10/02 12:04:31;;;;;;;4.13;2.40;;;18.00;99.90;;;;;;5132351;27;20164;-57
2022/10/02 12:07:06;;;;;;;6.38;2.38;;;17.90;99.90;;;;;;5132307;28;20180;-58
2022/10/02 12:09:59;;;;;;;8.80;2.58;;;18.40;99.90;;;;;;5132392;27;20671;-56
2022/10/02 12:12:39;;;;;;;4.68;2.15;;;17.70;99.90;;;;;;5135781;27;20196;-57
2022/10/02 12:15:28;;;;;;;4.28;2.10;;;17.50;99.90;;;;;;5136325;27;20200;-56
2022/10/02 12:18:16;;;;;;;7.32;2.28;;;17.60;99.90;;;;;;5135961;27;20179;-56
2022/10/02 12:27:02;;;;;;;6.93;2.38;;;17.50;99.90;;;;;;5136423;27;20175;-55
2022/10/02 12:30:02;;;;;;;6.85;3.42;;;20.90;99.90;;;;;;5137343;27;20182;-56
2022/10/02 12:32:44;;;;;;;9.50;3.50;;;17.50;99.90;;;;;;5136990;27;20164;-55
2022/10/02 12:35:30;;;;;;;6.75;2.33;;;17.50;99.90;;;;;;5136739;27;20236;-56
2022/10/02 12:38:23;;;;;;;8.70;2.75;;;17.90;99.90;;;;;;5136561;27;20170;-54
2022/10/02 12:40:56;;;;;;;6.60;2.58;;;17.80;99.90;;;;;;5135989;27;20200;-55
2022/10/02 12:43:48;;;;;;;5.43;2.42;;;17.50;99.90;;;;;;5136276;27;20160;-55
2022/10/02 12:46:58;;;;;;;6.95;2.80;;;17.50;99.90;;;;;;5116310;27;20179;-55
2022/10/02 12:49:54;;;;;;;5.32;2.60;;;17.70;99.90;;;;;;5136416;27;20156;-56
2022/10/02 12:52:57;;;;;;;7.78;2.65;;;17.90;99.90;;;;;;5136291;27;20575;-56
2022/10/02 12:55:46;;;;;;;6.97;3.13;;;18.10;99.90;;;;;;5136077;27;20292;-55
2022/10/02 12:58:59;;;;;;;9.65;3.63;;;18.00;99.90;;;;;;5136139;27;20168;-57
2022/10/02 13:01:53;;;;;;;8.00;2.72;;;18.10;99.90;;;;;;5113727;27;20218;-55
2022/10/02 13:04:42;;;;;;;7.70;2.85;;;18.10;99.90;;;;;;5136075;27;20164;-54
2022/10/02 13:07:58;;;;;;;8.07;2.75;;;18.20;99.90;;;;;;5135469;27;20175;-55
2022/10/02 13:10:34;;;;;;;5.75;2.70;;;18.30;99.90;;;;;;5092881;28;20181;-55
2022/10/02 13:13:23;;;;;;;10.55;2.72;;;18.30;99.90;;;;;;5130189;27;20213;-55
2022/10/02 13:16:07;;;;;;;10.88;2.90;;;17.00;99.90;;;;;;5135322;27;20172;-54
2022/10/02 13:19:00;;;;;;;6.97;2.72;;;18.40;99.90;;;;;;5134976;27;20160;-54
2022/10/02 13:21:49;;;;;;;7.32;2.70;;;18.30;99.90;;;;;;5134048;27;20203;-54
2022/10/02 13:24:29;;;;;;;6.25;2.55;;;18.40;99.90;;;;;;5133789;27;20174;-56
2022/10/02 13:27:41;;;;;;;10.20;3.08;;;18.40;99.90;;;;;;5135103;27;20167;-55
2022/10/02 13:30:21;;;;;;;9.05;2.90;;;18.20;99.90;;;;;;5092301;28;20256;-54
2022/10/02 13:33:12;;;;;;;7.72;3.00;;;18.20;99.90;;;;;;5127355;27;20194;-56
2022/10/02 13:35:49;;;;;;;6.60;2.80;;;18.20;99.90;;;;;;5135517;27;20170;-55
2022/10/02 13:38:51;;;;;;;6.80;2.67;;;18.20;99.90;;;;;;5135073;27;20644;-56
2022/10/02 13:41:37;;;;;;;8.27;2.90;;;18.20;99.90;;;;;;5134406;27;20236;-56
2022/10/02 13:44:40;;;;;;;4.40;2.80;;;17.90;99.90;;;;;;5134958;27;20203;-56
2022/10/02 13:47:23;;;;;;;9.63;2.92;;;17.90;99.90;;;;;;5134968;27;20163;-56
2022/10/02 13:49:58;;;;;;;7.47;3.00;;;17.90;99.90;;;;;;5135070;27;20721;-56
2022/10/02 13:52:38;;;;;;;6.75;2.70;;;17.80;99.90;;;;;;5135439;27;20530;-55
2022/10/02 13:55:06;;;;;;;7.43;2.90;;;17.60;99.90;;;;;;5135121;27;20211;-57
2022/10/02 13:58:07;;;;;;;8.63;3.17;;;17.60;99.90;;;;;;5134991;27;20164;-54
2022/10/02 14:00:39;;;;;;;6.38;2.70;;;17.70;99.90;;;;;;5134726;27;20215;-55
2022/10/02 14:03:42;;;;;;;6.75;2.80;;;17.70;99.90;;;;;;5134493;27;20709;-55
2022/10/02 14:06:35;;;;;;;8.38;3.10;;;17.60;99.90;;;;;;5134701;27;20168;-56
2022/10/02 14:09:21;;;;;;;5.07;2.45;;;17.70;99.90;;;;;;5134701;27;20633;-54
2022/10/02 14:12:06;;;;;;;7.40;2.97;;;17.60;99.90;;;;;;5134640;27;20168;-54
2022/10/02 14:15:14;;;;;;;6.60;2.83;;;17.40;99.90;;;;;;5134468;27;20164;-56
2022/10/02 14:17:45;;;;;;;6.38;2.88;;;17.30;99.90;;;;;;5134671;27;20611;-55